Time;durP1;ratioP1;P1;durP2;ratioP2;P2;SDS_P1;SDS_P2;PMS_P1;PMS_P2;Temp;Humidity;BMP_temperature;BMP_pressure;BME280_temperature;BME280_humidity;BME280_pressure;Samples;Min_cycle;Max_cycle;Signal;HPM_P1;HPM_P2
2023/09/11 00:03:20;;;;;;;15.88;9.77;;;18.80;99.90;;;;;;7311867;32;20092;-57
2023/09/11 00:07:24;;;;;;;24.08;10.23;;;18.90;99.90;;;;;;7310030;32;20143;-57
2023/09/11 00:11:26;;;;;;;12.27;8.65;;;18.90;99.90;;;;;;7315412;32;20722;-56
2023/09/11 00:15:32;;;;;;;18.35;9.70;;;18.80;99.90;;;;;;7317144;32;20206;-56
2023/09/11 00:19:34;;;;;;;10.82;8.73;;;18.70;99.90;;;;;;7306676;32;20174;-56
2023/09/11 00:23:35;;;;;;;16.23;8.90;;;18.70;99.90;;;;;;7305256;32;20450;-57
2023/09/11 00:27:37;;;;;;;15.32;9.10;;;18.60;99.90;;;;;;7307829;32;20089;-56
2023/09/11 00:31:39;;;;;;;12.68;9.13;;;18.60;99.90;;;;;;7306540;32;20779;-58
2023/09/11 00:35:45;;;;;;;15.40;9.00;;;18.50;99.90;;;;;;7304600;32;20100;-56
2023/09/11 00:39:47;;;;;;;16.77;9.05;;;18.40;99.90;;;;;;7304921;32;20104;-57
2023/09/11 00:43:48;;;;;;;13.20;9.57;;;18.40;99.90;;;;;;7302752;32;20260;-56
2023/09/11 00:47:50;;;;;;;19.60;9.27;;;18.30;99.90;;;;;;7314291;32;20215;-56
2023/09/11 00:51:53;;;;;;;15.13;9.60;;;18.30;99.90;;;;;;7305763;32;20156;-57
2023/09/11 00:55:55;;;;;;;14.63;8.75;;;18.20;99.90;;;;;;7309525;32;20104;-56
2023/09/11 00:59:57;;;;;;;10.20;8.45;;;18.10;99.90;;;;;;7307280;32;20124;-56
2023/09/11 01:03:59;;;;;;;11.45;8.10;;;18.10;99.90;;;;;;7314985;32;20293;-57
2023/09/11 01:08:01;;;;;;;16.83;8.82;;;18.00;99.90;;;;;;7305819;32;20116;-56
2023/09/11 01:12:03;;;;;;;18.48;9.13;;;17.90;99.90;;;;;;7303919;32;20105;-57
2023/09/11 01:16:07;;;;;;;12.40;8.82;;;17.90;99.90;;;;;;7300672;32;20126;-56
2023/09/11 01:20:33;;;;;;;13.68;8.55;;;17.90;99.90;;;;;;7299712;32;20167;-56
2023/09/11 01:25:11;;;;;;;17.70;9.45;;;17.80;99.90;;;;;;7302101;32;20476;-55
2023/09/11 01:29:18;;;;;;;15.80;8.95;;;17.70;99.90;;;;;;7303724;32;20293;-57
2023/09/11 01:33:20;;;;;;;14.75;9.07;;;17.70;99.90;;;;;;7298716;32;20225;-57
2023/09/11 01:37:22;;;;;;;15.50;9.10;;;17.70;99.90;;;;;;7294540;32;20167;-56
2023/09/11 01:41:34;;;;;;;17.20;9.68;;;17.70;99.90;;;;;;7297698;32;20297;-57
2023/09/11 01:45:38;;;;;;;15.85;9.07;;;17.70;99.90;;;;;;7299567;32;20093;-57
2023/09/11 01:49:42;;;;;;;16.12;8.65;;;17.70;99.90;;;;;;7300573;32;20104;-56
2023/09/11 01:53:45;;;;;;;13.62;8.52;;;17.60;99.90;;;;;;7298679;32;20128;-55
2023/09/11 01:57:46;;;;;;;13.38;8.52;;;17.50;99.90;;;;;;7305132;32;20175;-57
2023/09/11 02:01:48;;;;;;;13.00;8.25;;;17.50;99.90;;;;;;7305705;32;20221;-57
2023/09/11 02:05:50;;;;;;;10.18;7.90;;;17.40;99.90;;;;;;7296344;32;20187;-55
2023/09/11 02:09:52;;;;;;;16.80;8.27;;;17.40;99.90;;;;;;7299948;32;20195;-56
2023/09/11 02:13:54;;;;;;;14.73;9.02;;;17.30;99.90;;;;;;7300337;32;20111;-56
2023/09/11 02:17:55;;;;;;;12.52;8.23;;;17.20;99.90;;;;;;7299216;32;20104;-56
2023/09/11 02:21:57;;;;;;;12.68;8.20;;;17.20;99.90;;;;;;7303741;32;20100;-57
2023/09/11 02:26:00;;;;;;;13.73;8.68;;;17.20;99.90;;;;;;7295669;32;20195;-56
2023/09/11 02:30:02;;;;;;;14.85;9.00;;;17.20;99.90;;;;;;7298953;32;20154;-55
2023/09/11 02:34:04;;;;;;;12.93;8.40;;;17.20;99.90;;;;;;7303980;32;20123;-57
2023/09/11 02:38:06;;;;;;;12.70;8.88;;;17.10;99.90;;;;;;7300128;32;20215;-55
2023/09/11 02:42:08;;;;;;;13.25;8.40;;;17.10;99.90;;;;;;7297468;32;20119;-56
2023/09/11 02:46:10;;;;;;;14.52;9.25;;;17.00;99.90;;;;;;7301894;32;20235;-57
2023/09/11 02:50:11;;;;;;;16.92;8.48;;;17.00;99.90;;;;;;7307162;32;20100;-56
2023/09/11 02:54:13;;;;;;;16.95;8.88;;;17.00;99.90;;;;;;7296147;32;20096;-57
2023/09/11 02:58:15;;;;;;;14.38;8.70;;;17.00;99.90;;;;;;7288084;32;20088;-57
2023/09/11 03:02:17;;;;;;;11.50;8.27;;;16.90;99.90;;;;;;7299948;32;20441;-57
2023/09/11 03:06:19;;;;;;;22.50;9.27;;;17.00;99.90;;;;;;7295690;32;20120;-57
2023/09/11 03:10:20;;;;;;;13.32;9.23;;;16.90;99.90;;;;;;7300245;32;20120;-55
2023/09/11 03:14:23;;;;;;;16.67;9.88;;;16.90;99.90;;;;;;7308325;32;20276;-56
2023/09/11 03:18:25;;;;;;;17.70;9.27;;;16.90;99.90;;;;;;7302842;32;20104;-56
2023/09/11 03:22:28;;;;;;;12.73;9.27;;;16.90;99.90;;;;;;7305920;32;20116;-56
2023/09/11 03:26:30;;;;;;;12.77;8.73;;;16.90;99.90;;;;;;7298548;32;20490;-58
2023/09/11 03:30:34;;;;;;;15.57;8.27;;;16.90;99.90;;;;;;7313664;32;20126;-56
2023/09/11 03:34:35;;;;;;;15.45;8.73;;;16.90;99.90;;;;;;7306396;32;20156;-58
2023/09/11 03:38:37;;;;;;;14.85;9.23;;;16.80;99.90;;;;;;7310529;32;20253;-57
2023/09/11 03:42:40;;;;;;;21.67;9.13;;;16.90;99.90;;;;;;7304958;32;20092;-57
2023/09/11 03:46:42;;;;;;;23.67;9.52;;;16.90;99.90;;;;;;7314733;32;20123;-57
2023/09/11 03:50:43;;;;;;;17.15;9.48;;;16.90;99.90;;;;;;7309463;32;20126;-56
2023/09/11 03:54:45;;;;;;;12.35;8.65;;;16.90;99.90;;;;;;7307159;32;20179;-57
2023/09/11 03:58:47;;;;;;;15.68;8.57;;;16.90;99.90;;;;;;7307515;32;20255;-56
2023/09/11 04:02:48;;;;;;;16.20;9.77;;;16.90;99.90;;;;;;7306516;32;20152;-57
2023/09/11 04:06:50;;;;;;;19.42;8.98;;;17.00;99.90;;;;;;7308989;32;20213;-57
2023/09/11 04:10:52;;;;;;;17.20;8.90;;;17.00;99.90;;;;;;7311976;32;20520;-56
2023/09/11 04:14:54;;;;;;;10.45;8.25;;;17.00;99.90;;;;;;7305557;32;20223;-56
2023/09/11 04:18:55;;;;;;;13.93;8.73;;;17.00;99.90;;;;;;7301638;32;20415;-55
2023/09/11 04:22:57;;;;;;;11.82;8.18;;;17.00;99.90;;;;;;7306120;32;20100;-57
2023/09/11 04:26:59;;;;;;;12.45;8.25;;;17.00;99.90;;;;;;7301975;32;20200;-57
2023/09/11 04:31:01;;;;;;;11.27;8.27;;;17.10;99.90;;;;;;7299114;32;20138;-56
2023/09/11 04:35:03;;;;;;;11.07;7.97;;;17.30;99.90;;;;;;7305775;32;20225;-56
2023/09/11 04:39:07;;;;;;;17.98;9.20;;;17.30;99.90;;;;;;7311888;32;20107;-56
2023/09/11 04:43:09;;;;;;;20.35;8.23;;;17.30;99.90;;;;;;7304930;32;20108;-57
2023/09/11 04:47:11;;;;;;;16.10;8.80;;;17.30;99.90;;;;;;7302754;32;20225;-56
2023/09/11 04:51:13;;;;;;;14.45;8.30;;;17.30;99.90;;;;;;7305970;32;20195;-56
2023/09/11 04:55:15;;;;;;;14.20;8.00;;;17.30;99.90;;;;;;7306945;32;20115;-56
2023/09/11 04:59:16;;;;;;;15.13;8.88;;;17.40;99.90;;;;;;7300883;32;20182;-57
2023/09/11 05:03:18;;;;;;;13.65;7.95;;;17.30;99.90;;;;;;7286280;32;20115;-58
2023/09/11 05:07:20;;;;;;;12.85;7.97;;;17.30;99.90;;;;;;7296833;32;20202;-57
2023/09/11 05:11:22;;;;;;;13.77;8.30;;;17.30;99.90;;;;;;7294992;32;20168;-57
2023/09/11 05:15:24;;;;;;;18.15;7.50;;;17.30;99.90;;;;;;7298544;32;20158;-57
2023/09/11 05:19:26;;;;;;;15.27;8.38;;;17.20;99.90;;;;;;7297614;32;20252;-57
2023/09/11 05:23:27;;;;;;;16.90;8.45;;;17.20;99.90;;;;;;7285953;32;20569;-56
2023/09/11 05:27:29;;;;;;;19.35;8.13;;;17.20;99.90;;;;;;7300934;32;20574;-57
2023/09/11 05:31:31;;;;;;;18.58;8.13;;;17.30;99.90;;;;;;7293508;32;20104;-57
2023/09/11 05:35:33;;;;;;;17.92;9.02;;;17.30;99.90;;;;;;7301056;32;20107;-57
2023/09/11 05:39:34;;;;;;;13.30;8.15;;;17.30;99.90;;;;;;7301387;32;20104;-55
2023/09/11 05:43:37;;;;;;;16.25;7.70;;;17.30;99.90;;;;;;7297517;32;20516;-56
2023/09/11 05:47:39;;;;;;;40.17;29.37;;;17.40;99.90;;;;;;7300138;32;20122;-56
2023/09/11 05:51:41;;;;;;;30.37;22.10;;;17.50;99.90;;;;;;7300407;32;20631;-57
2023/09/11 05:55:43;;;;;;;18.92;10.88;;;17.60;99.90;;;;;;7295086;32;20209;-59
2023/09/11 05:59:46;;;;;;;10.95;8.57;;;17.60;99.90;;;;;;7298945;32;20122;-59
2023/09/11 06:03:47;;;;;;;15.80;7.75;;;17.60;99.90;;;;;;7297059;32;20348;-60
2023/09/11 06:07:49;;;;;;;13.00;7.53;;;17.70;99.90;;;;;;7299555;32;20100;-59
2023/09/11 06:11:52;;;;;;;14.20;7.93;;;17.80;99.90;;;;;;7292794;32;20199;-59
2023/09/11 06:15:54;;;;;;;14.43;7.60;;;17.80;99.90;;;;;;7290642;32;20104;-59
2023/09/11 06:19:56;;;;;;;11.15;7.22;;;18.00;99.90;;;;;;7297950;32;20117;-58
2023/09/11 06:23:57;;;;;;;13.50;7.72;;;18.20;99.90;;;;;;7298462;32;20108;-59
2023/09/11 06:27:59;;;;;;;17.30;8.13;;;18.30;99.90;;;;;;7301680;32;20194;-59
2023/09/11 06:32:02;;;;;;;11.30;7.37;;;18.50;99.90;;;;;;7296152;32;20184;-59
2023/09/11 06:36:04;;;;;;;9.77;6.70;;;18.60;99.90;;;;;;7300713;32;20123;-59
2023/09/11 06:40:10;;;;;;;15.20;6.87;;;18.80;99.90;;;;;;7300563;32;20179;-59
2023/09/11 06:44:12;;;;;;;13.35;6.95;;;19.00;99.90;;;;;;7296431;32;20248;-59
2023/09/11 06:48:13;;;;;;;13.55;6.95;;;19.20;99.90;;;;;;7297881;32;20103;-60
2023/09/11 06:52:16;;;;;;;18.80;6.68;;;19.30;99.90;;;;;;7301856;32;20246;-59
2023/09/11 06:56:18;;;;;;;15.63;6.70;;;19.50;99.90;;;;;;7300208;32;20270;-59
2023/09/11 07:00:20;;;;;;;14.60;5.90;;;19.70;99.90;;;;;;7297364;32;20221;-59
2023/09/11 07:04:21;;;;;;;15.02;6.78;;;20.10;99.90;;;;;;7295646;32;20096;-58
2023/09/11 07:08:23;;;;;;;13.48;5.70;;;20.30;99.90;;;;;;7293157;32;20214;-56
2023/09/11 07:12:25;;;;;;;13.23;6.03;;;20.40;99.90;;;;;;7292429;32;20141;-56
2023/09/11 07:16:27;;;;;;;14.43;5.93;;;20.50;99.90;;;;;;7297323;32;20104;-56
2023/09/11 07:20:29;;;;;;;17.23;6.37;;;20.60;99.90;;;;;;7298184;32;20260;-57
2023/09/11 07:24:30;;;;;;;11.68;5.93;;;20.60;99.90;;;;;;7302434;32;20228;-56
2023/09/11 07:28:34;;;;;;;12.82;5.50;;;20.80;99.90;;;;;;7297856;32;20103;-56
2023/09/11 07:32:36;;;;;;;16.85;5.87;;;20.90;99.90;;;;;;7299362;32;20168;-56
2023/09/11 07:36:38;;;;;;;12.07;5.40;;;21.00;99.90;;;;;;7294793;32;20207;-56
2023/09/11 07:40:40;;;;;;;16.48;5.75;;;21.20;99.90;;;;;;7298923;32;20308;-57
2023/09/11 07:44:43;;;;;;;16.20;6.50;;;21.20;99.90;;;;;;7298823;32;20266;-56
2023/09/11 07:48:45;;;;;;;13.73;5.40;;;21.20;99.90;;;;;;7297443;32;20096;-56
2023/09/11 07:52:47;;;;;;;12.35;5.37;;;21.40;99.90;;;;;;7309351;32;20506;-56
2023/09/11 07:56:50;;;;;;;10.00;5.70;;;21.40;99.90;;;;;;7296298;32;20510;-57
2023/09/11 08:00:51;;;;;;;16.17;5.60;;;21.60;99.90;;;;;;7291323;32;20136;-56
2023/09/11 08:04:54;;;;;;;12.93;5.68;;;21.70;99.90;;;;;;7300802;32;20550;-56
2023/09/11 08:09:03;;;;;;;19.05;5.75;;;21.80;99.90;;;;;;7296557;32;20177;-56
2023/09/11 08:13:04;;;;;;;12.10;5.37;;;21.80;99.90;;;;;;7300793;32;20103;-56
2023/09/11 08:17:06;;;;;;;16.92;5.80;;;21.90;99.90;;;;;;7298999;32;20124;-57
2023/09/11 08:21:09;;;;;;;17.25;5.32;;;22.20;99.90;;;;;;7308466;32;20575;-56
2023/09/11 08:25:12;;;;;;;15.68;5.20;;;22.30;99.90;;;;;;7313729;32;20126;-56
2023/09/11 08:29:15;;;;;;;15.68;4.97;;;22.50;99.90;;;;;;7299604;32;20141;-56
2023/09/11 08:33:17;;;;;;;15.57;5.30;;;22.70;99.90;;;;;;7294130;32;20211;-56
2023/09/11 08:37:19;;;;;;;12.52;4.82;;;23.00;99.90;;;;;;7303409;32;20112;-57
2023/09/11 08:41:23;;;;;;;11.68;4.62;;;23.80;99.90;;;;;;7295436;32;20133;-57
2023/09/11 08:45:26;;;;;;;18.67;5.07;;;24.80;99.90;;;;;;7307887;32;20108;-57
2023/09/11 08:49:33;;;;;;;14.45;5.28;;;25.50;99.90;;;;;;7301986;32;20152;-57
2023/09/11 08:53:38;;;;;;;10.85;4.57;;;25.90;99.90;;;;;;7304166;32;20140;-57
2023/09/11 08:57:42;;;;;;;13.27;4.45;;;25.90;99.90;;;;;;7306554;32;20174;-56
2023/09/11 09:01:45;;;;;;;13.18;4.62;;;26.30;99.90;;;;;;7301510;32;20100;-56
2023/09/11 09:05:47;;;;;;;15.15;4.57;;;27.10;99.90;;;;;;7304863;32;20157;-56
2023/09/11 09:09:49;;;;;;;11.70;4.40;;;27.30;99.90;;;;;;7304387;32;20100;-57
2023/09/11 09:13:51;;;;;;;15.25;4.80;;;27.30;99.90;;;;;;7303744;32;20214;-57
2023/09/11 09:17:52;;;;;;;13.77;4.53;;;27.40;99.90;;;;;;7305959;32;20104;-58
2023/09/11 09:22:06;;;;;;;9.95;4.05;;;28.00;99.90;;;;;;7303203;32;20809;-57
2023/09/11 09:26:11;;;;;;;10.30;4.15;;;28.80;99.90;;;;;;7294113;32;20126;-58
2023/09/11 09:30:23;;;;;;;15.05;4.87;;;29.90;99.90;;;;;;7293124;32;20154;-57
2023/09/11 09:34:25;;;;;;;11.38;4.00;;;30.50;99.90;;;;;;7296690;32;20099;-57
2023/09/11 09:38:27;;;;;;;10.75;3.45;;;30.80;99.90;;;;;;7303175;32;20108;-57
2023/09/11 09:42:40;;;;;;;11.45;4.10;;;30.60;99.90;;;;;;7290119;32;20100;-58
2023/09/11 09:46:42;;;;;;;14.93;4.72;;;31.00;99.90;;;;;;7304456;32;20186;-57
2023/09/11 09:50:57;;;;;;;8.88;4.10;;;30.80;99.90;;;;;;7304798;32;20103;-57
2023/09/11 09:55:07;;;;;;;10.73;4.30;;;31.80;99.90;;;;;;7304935;32;20108;-58
2023/09/11 09:59:08;;;;;;;13.43;4.40;;;32.80;99.90;;;;;;7299996;32;20134;-58
2023/09/11 10:03:11;;;;;;;11.48;3.87;;;33.90;97.80;;;;;;7304301;32;20490;-58
2023/09/11 10:07:13;;;;;;;8.63;4.03;;;34.60;98.90;;;;;;7305474;32;20115;-58
2023/09/11 10:11:32;;;;;;;10.27;3.90;;;35.50;92.70;;;;;;7304028;32;20991;-57
2023/09/11 10:15:36;;;;;;;15.25;4.65;;;35.40;98.70;;;;;;7299323;32;20104;-57
2023/09/11 10:19:39;;;;;;;7.60;4.03;;;35.20;92.00;;;;;;7302869;32;20187;-57
2023/09/11 10:23:41;;;;;;;12.27;3.92;;;35.10;93.30;;;;;;7299932;32;20327;-57
2023/09/11 10:27:45;;;;;;;10.55;4.43;;;34.80;94.70;;;;;;7301398;32;20251;-57
2023/09/11 10:31:58;;;;;;;11.25;3.87;;;34.70;94.30;;;;;;7298020;32;20104;-57
2023/09/11 10:36:07;;;;;;;13.48;4.20;;;34.60;96.30;;;;;;7298018;32;20100;-57
2023/09/11 10:40:11;;;;;;;11.23;4.07;;;34.50;95.60;;;;;;7301130;32;20099;-57
2023/09/11 10:44:13;;;;;;;13.07;4.55;;;34.40;94.90;;;;;;7301466;32;20287;-56
2023/09/11 10:48:32;;;;;;;11.60;4.37;;;34.30;92.80;;;;;;7298549;32;20202;-57
2023/09/11 10:52:34;;;;;;;12.77;4.93;;;33.70;94.30;;;;;;7300241;32;20111;-56
2023/09/11 10:56:36;;;;;;;15.02;4.93;;;34.00;92.50;;;;;;7296293;32;20215;-57
2023/09/11 11:00:38;;;;;;;10.10;4.45;;;34.10;91.30;;;;;;7299591;32;20116;-58
2023/09/11 11:04:40;;;;;;;20.60;5.00;;;34.20;92.70;;;;;;7299179;32;20179;-57
2023/09/11 11:08:42;;;;;;;10.40;4.97;;;33.90;90.40;;;;;;7297084;32;20222;-56
2023/09/11 11:12:46;;;;;;;12.85;5.35;;;34.00;91.20;;;;;;7298396;32;20103;-56
2023/09/11 11:17:10;;;;;;;12.70;4.85;;;33.50;92.50;;;;;;7293431;32;20532;-57
2023/09/11 11:21:14;;;;;;;14.35;4.80;;;33.50;93.80;;;;;;7295422;32;20199;-57
2023/09/11 11:25:17;;;;;;;11.95;4.90;;;33.30;93.10;;;;;;7298935;32;20168;-56
2023/09/11 11:29:19;;;;;;;10.13;5.18;;;32.80;94.50;;;;;;7298522;32;20198;-57
2023/09/11 11:33:24;;;;;;;17.10;5.50;;;32.30;96.00;;;;;;7298530;32;20128;-58
2023/09/11 11:37:26;;;;;;;13.33;4.73;;;31.70;97.20;;;;;;7287818;32;20210;-57
2023/09/11 11:41:30;;;;;;;13.43;5.57;;;31.40;97.50;;;;;;7290201;32;20096;-58
2023/09/11 11:45:33;;;;;;;16.50;5.65;;;30.90;98.40;;;;;;7292420;32;20738;-58
2023/09/11 11:49:38;;;;;;;23.00;6.37;;;30.60;97.70;;;;;;7295362;32;20132;-56
2023/09/11 11:53:40;;;;;;;12.98;5.80;;;30.50;98.60;;;;;;7308417;32;20100;-57
2023/09/11 11:57:42;;;;;;;11.73;5.50;;;30.30;99.60;;;;;;7298019;32;20288;-57
2023/09/11 12:01:44;;;;;;;18.42;5.90;;;30.40;99.90;;;;;;7288205;32;20504;-56
2023/09/11 12:05:46;;;;;;;9.60;5.75;;;30.50;99.90;;;;;;7304251;32;20104;-56
2023/09/11 12:09:49;;;;;;;14.38;5.57;;;30.60;99.90;;;;;;7301326;32;20107;-57
2023/09/11 12:13:51;;;;;;;14.10;5.55;;;30.40;99.90;;;;;;7299941;32;20238;-57
2023/09/11 12:17:53;;;;;;;19.90;6.03;;;30.30;99.90;;;;;;7302645;32;20210;-57
2023/09/11 12:21:56;;;;;;;12.27;6.07;;;30.20;99.90;;;;;;7307240;32;20183;-56
2023/09/11 12:25:59;;;;;;;14.25;6.65;;;30.20;99.90;;;;;;7303199;32;20598;-58
2023/09/11 12:30:05;;;;;;;19.08;6.55;;;30.00;99.90;;;;;;7303572;32;20267;-56
2023/09/11 12:34:06;;;;;;;12.00;5.90;;;29.90;99.90;;;;;;7303359;32;20223;-56
2023/09/11 12:38:10;;;;;;;16.85;5.65;;;29.90;99.90;;;;;;7303826;32;20092;-56
2023/09/11 12:42:13;;;;;;;12.20;6.03;;;29.90;99.90;;;;;;7304197;32;20304;-57
2023/09/11 12:46:15;;;;;;;13.88;6.03;;;29.80;99.90;;;;;;7305531;32;20108;-56
2023/09/11 12:50:17;;;;;;;18.00;5.65;;;29.90;99.90;;;;;;7293360;32;20764;-56
2023/09/11 12:54:19;;;;;;;13.70;5.05;;;29.90;99.90;;;;;;7301445;32;20428;-57
2023/09/11 12:58:21;;;;;;;10.68;4.62;;;29.90;99.90;;;;;;7307741;32;20784;-56
2023/09/11 13:02:22;;;;;;;9.68;5.37;;;30.00;99.90;;;;;;7305538;32;20556;-56
2023/09/11 13:06:28;;;;;;;7.47;4.90;;;29.90;99.90;;;;;;7304984;32;20615;-56
2023/09/11 13:10:31;;;;;;;9.68;4.75;;;30.00;99.90;;;;;;7302362;32;20112;-57
2023/09/11 13:14:32;;;;;;;9.90;4.60;;;30.20;99.90;;;;;;7302653;32;20266;-57
2023/09/11 13:18:34;;;;;;;10.50;4.90;;;30.10;99.90;;;;;;7295248;32;20354;-57
2023/09/11 13:22:36;;;;;;;10.20;4.53;;;29.90;99.90;;;;;;7297469;32;20576;-57
2023/09/11 13:26:38;;;;;;;8.77;5.05;;;29.90;99.90;;;;;;7305279;32;20115;-58
2023/09/11 13:30:40;;;;;;;12.40;4.97;;;29.70;99.90;;;;;;7308444;32;20125;-59
2023/09/11 13:34:45;;;;;;;13.27;4.57;;;29.80;99.90;;;;;;7299937;32;20245;-58
2023/09/11 13:38:46;;;;;;;9.27;4.72;;;29.80;99.90;;;;;;7303965;32;20213;-58
2023/09/11 13:42:49;;;;;;;9.90;4.80;;;29.70;99.90;;;;;;7300036;32;20230;-57
2023/09/11 13:46:51;;;;;;;12.00;5.03;;;29.80;99.90;;;;;;7298261;32;20436;-58
2023/09/11 13:50:53;;;;;;;9.98;4.90;;;29.40;99.90;;;;;;7291213;32;20222;-58
2023/09/11 13:54:54;;;;;;;8.85;4.90;;;29.60;99.90;;;;;;7297732;32;20541;-57
2023/09/11 13:58:57;;;;;;;7.85;5.00;;;29.60;99.90;;;;;;7300980;32;20171;-57
2023/09/11 14:02:58;;;;;;;11.25;4.78;;;29.50;99.90;;;;;;7300156;32;20581;-58
2023/09/11 14:07:00;;;;;;;10.52;5.35;;;29.60;99.90;;;;;;7300769;32;20556;-58
2023/09/11 14:11:02;;;;;;;7.25;4.50;;;29.60;99.90;;;;;;7294815;32;20135;-57
2023/09/11 14:15:04;;;;;;;8.98;4.78;;;29.70;99.90;;;;;;7301225;32;20127;-59
2023/09/11 14:19:07;;;;;;;9.68;5.70;;;29.70;99.90;;;;;;7300922;32;20183;-56
2023/09/11 14:23:09;;;;;;;11.95;5.15;;;29.60;99.90;;;;;;7290305;32;20182;-57
2023/09/11 14:27:12;;;;;;;9.93;5.18;;;29.60;99.90;;;;;;7296517;32;20167;-56
2023/09/11 14:31:14;;;;;;;11.15;5.40;;;29.50;99.90;;;;;;7300538;32;20152;-57
2023/09/11 14:35:16;;;;;;;9.38;5.10;;;29.50;99.90;;;;;;7301050;32;20234;-57
2023/09/11 14:39:19;;;;;;;9.27;4.90;;;29.50;99.90;;;;;;7306173;32;20095;-56
2023/09/11 14:43:21;;;;;;;14.32;5.20;;;29.40;99.90;;;;;;7304127;32;20541;-58
2023/09/11 14:47:22;;;;;;;23.73;5.70;;;29.30;99.90;;;;;;7289812;32;20813;-58
2023/09/11 14:51:24;;;;;;;10.77;5.62;;;29.20;99.90;;;;;;7285515;32;20398;-58
2023/09/11 14:55:26;;;;;;;9.90;5.25;;;29.00;99.90;;;;;;7289830;32;20108;-57
2023/09/11 14:59:28;;;;;;;10.27;4.90;;;29.00;99.90;;;;;;7301733;32;20130;-57
2023/09/11 15:03:29;;;;;;;14.48;5.15;;;28.90;99.90;;;;;;7293060;32;20262;-57
2023/09/11 15:07:31;;;;;;;9.48;4.90;;;28.70;99.90;;;;;;7296321;32;20207;-57
2023/09/11 15:11:33;;;;;;;8.10;4.95;;;28.50;99.90;;;;;;7297749;32;20573;-57
2023/09/11 15:15:35;;;;;;;11.52;4.97;;;28.40;99.90;;;;;;7295781;32;20254;-59
2023/09/11 15:19:38;;;;;;;12.27;5.68;;;28.30;99.90;;;;;;7296065;32;20766;-56
2023/09/11 15:23:40;;;;;;;9.88;4.80;;;28.20;99.90;;;;;;7297219;32;20295;-56
2023/09/11 15:27:42;;;;;;;10.07;5.10;;;28.10;99.90;;;;;;7300020;32;20121;-57
2023/09/11 15:31:44;;;;;;;14.00;6.05;;;28.00;99.90;;;;;;7298970;32;20222;-57
2023/09/11 15:36:09;;;;;;;7.35;5.15;;;28.00;99.90;;;;;;7294344;32;20234;-57
2023/09/11 15:40:11;;;;;;;9.07;5.40;;;28.00;99.90;;;;;;7298674;32;20169;-57
2023/09/11 15:44:15;;;;;;;10.57;5.30;;;28.10;99.90;;;;;;7296169;32;20311;-56
2023/09/11 15:48:17;;;;;;;6.97;4.60;;;27.90;99.90;;;;;;7293523;32;20410;-57
2023/09/11 15:52:18;;;;;;;8.05;4.80;;;27.90;99.90;;;;;;7300867;32;20149;-57
2023/09/11 15:56:20;;;;;;;10.32;5.68;;;28.00;99.90;;;;;;7303560;32;20214;-57
2023/09/11 16:00:23;;;;;;;8.63;5.72;;;28.10;99.90;;;;;;7295676;32;20234;-57
2023/09/11 16:04:25;;;;;;;11.30;5.70;;;28.00;99.90;;;;;;7297273;32;20265;-57
2023/09/11 16:08:27;;;;;;;8.57;5.43;;;28.00;99.90;;;;;;7291334;32;20294;-57
2023/09/11 16:12:28;;;;;;;12.15;6.32;;;27.90;99.90;;;;;;7292635;32;20456;-56
2023/09/11 16:16:32;;;;;;;9.00;5.75;;;27.90;99.90;;;;;;7293931;32;20195;-57
2023/09/11 16:20:37;;;;;;;7.68;5.85;;;27.60;99.90;;;;;;7297021;32;20179;-57
2023/09/11 16:24:39;;;;;;;8.73;5.95;;;27.60;99.90;;;;;;7298784;32;20104;-57
2023/09/11 16:28:41;;;;;;;9.18;6.03;;;27.20;99.90;;;;;;7277292;32;20104;-57
2023/09/11 16:32:44;;;;;;;165.93;147.30;;;27.10;99.90;;;;;;7297082;32;20316;-57
2023/09/11 16:36:46;;;;;;;17.67;10.38;;;27.10;99.90;;;;;;7299531;32;20116;-57
2023/09/11 16:40:48;;;;;;;8.95;6.20;;;27.00;99.90;;;;;;7300333;32;20131;-57
2023/09/11 16:44:51;;;;;;;12.98;6.82;;;27.00;99.90;;;;;;7287340;32;20479;-56
2023/09/11 16:48:53;;;;;;;11.18;6.37;;;26.90;99.90;;;;;;7297278;32;20376;-56
2023/09/11 16:52:55;;;;;;;8.82;5.85;;;26.80;99.90;;;;;;7297050;32;22045;-56
2023/09/11 16:56:57;;;;;;;9.32;6.50;;;26.50;99.90;;;;;;7299680;32;20187;-57
2023/09/11 17:01:07;;;;;;;12.35;6.47;;;26.20;99.90;;;;;;7310173;32;20099;-56
2023/09/11 17:05:09;;;;;;;12.60;6.60;;;26.00;99.90;;;;;;7306960;32;20242;-57
2023/09/11 17:09:11;;;;;;;13.48;7.82;;;26.00;99.90;;;;;;7303048;32;20116;-56
2023/09/11 17:13:15;;;;;;;15.52;7.18;;;25.90;99.90;;;;;;7302208;32;20187;-57
2023/09/11 17:17:16;;;;;;;10.55;7.15;;;25.40;99.90;;;;;;7308908;32;20853;-56
2023/09/11 17:21:18;;;;;;;12.10;7.80;;;25.20;99.90;;;;;;7300033;32;20487;-56
2023/09/11 17:25:22;;;;;;;14.18;7.87;;;25.00;99.90;;;;;;7308348;32;20201;-56
2023/09/11 17:29:27;;;;;;;13.70;10.73;;;25.00;99.90;;;;;;7314641;32;20203;-56
2023/09/11 17:33:29;;;;;;;10.57;7.47;;;24.70;99.90;;;;;;7296679;32;20519;-57
2023/09/11 17:37:31;;;;;;;11.18;7.80;;;24.40;99.90;;;;;;7290104;32;20131;-58
2023/09/11 17:41:33;;;;;;;9.77;7.45;;;24.10;99.90;;;;;;7299983;32;20127;-57
2023/09/11 17:45:36;;;;;;;10.15;7.37;;;24.00;99.90;;;;;;7311616;32;20131;-57
2023/09/11 17:49:40;;;;;;;14.18;8.10;;;23.80;99.90;;;;;;7293467;32;20215;-57
2023/09/11 17:53:42;;;;;;;13.70;8.63;;;23.70;99.90;;;;;;7301021;32;20560;-57
2023/09/11 17:57:43;;;;;;;10.80;7.82;;;23.50;99.90;;;;;;7294211;32;20334;-58
2023/09/11 18:01:45;;;;;;;12.93;8.63;;;23.50;99.90;;;;;;7302013;32;20190;-58
2023/09/11 18:05:53;;;;;;;11.70;8.73;;;23.20;99.90;;;;;;7302229;32;20270;-57
2023/09/11 18:09:55;;;;;;;17.33;8.27;;;23.10;99.90;;;;;;7299830;32;20219;-57
2023/09/11 18:13:57;;;;;;;11.40;7.50;;;23.00;99.90;;;;;;7296686;32;20454;-56
2023/09/11 18:17:58;;;;;;;14.13;8.52;;;23.00;99.90;;;;;;7295097;32;20492;-58
2023/09/11 18:22:00;;;;;;;16.85;8.05;;;23.00;99.90;;;;;;7297104;32;20126;-57
2023/09/11 18:26:02;;;;;;;10.85;8.00;;;22.80;99.90;;;;;;7301548;32;20221;-55
2023/09/11 18:30:05;;;;;;;15.50;8.52;;;22.80;99.90;;;;;;7300383;32;20211;-57
2023/09/11 18:34:09;;;;;;;12.00;9.55;;;22.80;99.90;;;;;;7301355;32;20156;-58
2023/09/11 18:38:11;;;;;;;12.10;8.65;;;22.60;99.90;;;;;;7303391;32;20169;-57
2023/09/11 18:42:13;;;;;;;12.95;8.55;;;22.50;99.90;;;;;;7298575;32;20461;-56
2023/09/11 18:46:15;;;;;;;12.52;8.65;;;22.40;99.90;;;;;;7296067;32;20245;-56
2023/09/11 18:50:16;;;;;;;13.43;8.82;;;22.30;99.90;;;;;;7278317;32;20199;-56
2023/09/11 18:54:20;;;;;;;13.10;9.00;;;22.30;99.90;;;;;;7288870;32;20104;-56
2023/09/11 18:58:22;;;;;;;14.85;9.32;;;22.20;99.90;;;;;;7300797;32;20099;-57
2023/09/11 19:02:24;;;;;;;12.63;8.57;;;22.10;99.90;;;;;;7300874;32;20250;-56
2023/09/11 19:06:26;;;;;;;13.52;8.93;;;22.00;99.90;;;;;;7302877;32;20447;-56
2023/09/11 19:10:28;;;;;;;11.02;8.73;;;22.00;99.90;;;;;;7300768;32;20121;-56
2023/09/11 19:14:29;;;;;;;15.07;9.27;;;21.80;99.90;;;;;;7289191;32;20134;-56
2023/09/11 19:18:36;;;;;;;12.27;9.30;;;21.80;99.90;;;;;;7297187;32;20116;-55
2023/09/11 19:22:38;;;;;;;9.43;8.43;;;21.80;99.90;;;;;;7297286;32;20104;-57
2023/09/11 19:26:40;;;;;;;11.85;8.48;;;21.70;99.90;;;;;;7295096;32;20342;-55
2023/09/11 19:30:42;;;;;;;12.27;9.20;;;21.60;99.90;;;;;;7300496;32;20884;-56
2023/09/11 19:34:44;;;;;;;10.43;8.20;;;21.60;99.90;;;;;;7286296;32;20229;-56
2023/09/11 19:38:46;;;;;;;11.95;9.73;;;21.40;99.90;;;;;;7300116;32;20100;-56
2023/09/11 19:42:47;;;;;;;10.70;9.27;;;21.40;99.90;;;;;;7292733;32;20213;-56
2023/09/11 19:46:51;;;;;;;14.93;9.90;;;21.40;99.90;;;;;;7283942;32;20111;-57
2023/09/11 19:50:53;;;;;;;12.68;9.50;;;21.30;99.90;;;;;;7296873;32;20161;-56
2023/09/11 19:54:57;;;;;;;16.40;9.63;;;21.30;99.90;;;;;;7293856;32;20134;-55
2023/09/11 19:59:04;;;;;;;10.50;9.30;;;21.30;99.90;;;;;;7292516;32;20195;-57
2023/09/11 20:03:06;;;;;;;15.57;9.48;;;21.20;99.90;;;;;;7295633;32;20146;-56
2023/09/11 20:07:08;;;;;;;14.30;8.82;;;21.20;99.90;;;;;;7302266;32;20550;-56
2023/09/11 20:11:10;;;;;;;12.18;8.77;;;21.20;99.90;;;;;;7302415;32;20157;-56
2023/09/11 20:15:12;;;;;;;17.05;9.75;;;21.20;99.90;;;;;;7303243;32;21195;-55
2023/09/11 20:19:14;;;;;;;15.65;9.75;;;21.10;99.90;;;;;;7306448;32;20254;-56
2023/09/11 20:23:15;;;;;;;15.88;9.63;;;21.00;99.90;;;;;;7301979;32;20557;-55
2023/09/11 20:27:17;;;;;;;12.52;9.00;;;21.00;99.90;;;;;;7299822;32;20126;-55
2023/09/11 20:31:19;;;;;;;16.02;9.48;;;21.00;99.90;;;;;;7297609;32;20214;-56
2023/09/11 20:35:21;;;;;;;15.98;8.75;;;21.10;99.90;;;;;;7303294;32;20127;-55
2023/09/11 20:39:26;;;;;;;11.77;9.00;;;21.30;99.90;;;;;;7301542;32;20101;-56
2023/09/11 20:43:28;;;;;;;13.38;9.13;;;21.60;99.90;;;;;;7300783;32;20108;-56
2023/09/11 20:47:29;;;;;;;12.50;9.95;;;21.60;99.90;;;;;;7306442;32;20219;-56
2023/09/11 20:51:31;;;;;;;17.05;10.68;;;21.60;99.90;;;;;;7304866;32;20110;-56